Terminal Aerodrome Forecast
Issued by NWS

Current Version | Previous Version | Text Only | Print | Product List | Glossary On
Versions: 1 2 3 4 5 6 7 8 9 10 11 12
162
FTUS45 KVEF 241732
TAFDAG
TAF
KDAG 241732Z 2418/2518 08010KT P6SM VCSH SCT100 SCT150
     FM242200 08007KT P6SM VCTS SCT100CB SCT150
      TEMPO 2422/2502 VRB15G25KT P6SM -TSRA BKN080CB
     FM250300 24010KT P6SM SCT120 BKN150
     FM251500 29008KT P6SM SCT120 BKN150=

USA.gov is the U.S. government's official web portal to all federal, state and local government web resources and services.